Terminal Aerodrome Forecast
Issued by NWS

Home | Current Version | Previous Version | Text Only | Print | Product List | Glossary On
Versions: 1 2 3 4 5 6 7 8 9 10 11 12 13 14 15 16 17 18 19 20 21 22 23 24 25
000
FTUS46 KSEW 291400 AAA
TAFSEA
TAF AMD
KSEA 291401Z 2914/3018 01010G18KT P6SM SCT020 BKN100
      TEMPO 2914/2916 BKN020 BKN100
     FM292200 04014G22KT P6SM SKC
     FM300600 05010KT P6SM SKC=

USA.gov is the U.S. government's official web portal to all federal, state and local government web resources and services.